sensor_id;sensor_type;location;lat;lon;timestamp;temperature;humidity
37052;DHT22;22964;52.272;13.356;2023-03-29T00:01:57;6.30;55.00
37052;DHT22;22964;52.272;13.356;2023-03-29T00:04:23;6.30;55.20
37052;DHT22;22964;52.272;13.356;2023-03-29T00:06:53;6.30;55.30
37052;DHT22;22964;52.272;13.356;2023-03-29T00:09:19;6.30;55.40
37052;DHT22;22964;52.272;13.356;2023-03-29T00:11:45;6.30;55.40
37052;DHT22;22964;52.272;13.356;2023-03-29T00:14:11;6.30;55.50
37052;DHT22;22964;52.272;13.356;2023-03-29T00:16:37;6.30;55.60
37052;DHT22;22964;52.272;13.356;2023-03-29T00:19:04;6.40;55.60
37052;DHT22;22964;52.272;13.356;2023-03-29T00:21:30;6.40;55.70
37052;DHT22;22964;52.272;13.356;2023-03-29T00:23:56;6.40;55.70
37052;DHT22;22964;52.272;13.356;2023-03-29T00:26:22;6.40;56.00
37052;DHT22;22964;52.272;13.356;2023-03-29T00:28:47;6.40;56.00
37052;DHT22;22964;52.272;13.356;2023-03-29T00:31:15;6.40;56.20
37052;DHT22;22964;52.272;13.356;2023-03-29T00:33:42;6.50;56.20
37052;DHT22;22964;52.272;13.356;2023-03-29T00:36:10;6.50;56.10
37052;DHT22;22964;52.272;13.356;2023-03-29T00:38:37;6.50;56.10
37052;DHT22;22964;52.272;13.356;2023-03-29T00:41:04;6.50;56.00
37052;DHT22;22964;52.272;13.356;2023-03-29T00:43:56;6.60;56.10
37052;DHT22;22964;52.272;13.356;2023-03-29T00:46:23;6.60;56.50
37052;DHT22;22964;52.272;13.356;2023-03-29T00:48:52;6.60;56.10
37052;DHT22;22964;52.272;13.356;2023-03-29T00:51:20;6.60;56.80
37052;DHT22;22964;52.272;13.356;2023-03-29T00:53:54;6.60;56.20
37052;DHT22;22964;52.272;13.356;2023-03-29T00:56:30;6.70;56.20
37052;DHT22;22964;52.272;13.356;2023-03-29T00:59:12;6.70;56.50
37052;DHT22;22964;52.272;13.356;2023-03-29T01:01:53;6.70;56.40
37052;DHT22;22964;52.272;13.356;2023-03-29T01:07:12;6.70;56.10
37052;DHT22;22964;52.272;13.356;2023-03-29T01:09:45;6.80;55.80
37052;DHT22;22964;52.272;13.356;2023-03-29T01:12:19;6.80;55.80
37052;DHT22;22964;52.272;13.356;2023-03-29T01:14:53;6.80;55.80
37052;DHT22;22964;52.272;13.356;2023-03-29T01:17:21;6.80;55.70
37052;DHT22;22964;52.272;13.356;2023-03-29T01:20:23;6.80;55.50
37052;DHT22;22964;52.272;13.356;2023-03-29T01:28:22;6.80;55.50
37052;DHT22;22964;52.272;13.356;2023-03-29T01:31:01;6.80;55.40
37052;DHT22;22964;52.272;13.356;2023-03-29T01:33:36;6.80;55.50
37052;DHT22;22964;52.272;13.356;2023-03-29T01:36:23;6.80;55.50
37052;DHT22;22964;52.272;13.356;2023-03-29T01:39:02;6.80;55.70
37052;DHT22;22964;52.272;13.356;2023-03-29T01:44:39;6.80;55.70
37052;DHT22;22964;52.272;13.356;2023-03-29T01:47:18;6.80;55.60
37052;DHT22;22964;52.272;13.356;2023-03-29T01:52:54;6.80;55.70
37052;DHT22;22964;52.272;13.356;2023-03-29T01:55:23;6.80;55.70
37052;DHT22;22964;52.272;13.356;2023-03-29T01:57:51;6.70;55.30
37052;DHT22;22964;52.272;13.356;2023-03-29T02:00:21;6.80;55.40
37052;DHT22;22964;52.272;13.356;2023-03-29T02:02:50;6.80;55.50
37052;DHT22;22964;52.272;13.356;2023-03-29T02:05:18;6.80;55.60
37052;DHT22;22964;52.272;13.356;2023-03-29T02:07:46;6.80;55.50
37052;DHT22;22964;52.272;13.356;2023-03-29T02:10:13;6.80;55.60
37052;DHT22;22964;52.272;13.356;2023-03-29T02:12:41;6.80;55.60
37052;DHT22;22964;52.272;13.356;2023-03-29T02:15:12;6.80;55.60
37052;DHT22;22964;52.272;13.356;2023-03-29T02:17:38;6.80;56.40
37052;DHT22;22964;52.272;13.356;2023-03-29T02:20:09;6.80;55.60
37052;DHT22;22964;52.272;13.356;2023-03-29T02:23:01;6.80;55.60
37052;DHT22;22964;52.272;13.356;2023-03-29T02:25:30;6.70;55.70
37052;DHT22;22964;52.272;13.356;2023-03-29T02:27:58;6.80;55.50
37052;DHT22;22964;52.272;13.356;2023-03-29T02:30:28;6.70;55.50
37052;DHT22;22964;52.272;13.356;2023-03-29T02:33:09;6.80;55.60
37052;DHT22;22964;52.272;13.356;2023-03-29T02:35:53;6.70;55.80
37052;DHT22;22964;52.272;13.356;2023-03-29T02:38:23;6.70;55.90
37052;DHT22;22964;52.272;13.356;2023-03-29T02:40:51;6.70;55.50
37052;DHT22;22964;52.272;13.356;2023-03-29T02:43:18;6.70;55.60
37052;DHT22;22964;52.272;13.356;2023-03-29T02:45:46;6.70;55.60
37052;DHT22;22964;52.272;13.356;2023-03-29T02:48:15;6.70;55.60
37052;DHT22;22964;52.272;13.356;2023-03-29T02:50:44;6.70;55.60
37052;DHT22;22964;52.272;13.356;2023-03-29T02:53:17;6.70;55.60
37052;DHT22;22964;52.272;13.356;2023-03-29T02:55:45;6.70;55.60
37052;DHT22;22964;52.272;13.356;2023-03-29T02:58:12;6.70;56.00
37052;DHT22;22964;52.272;13.356;2023-03-29T03:00:42;6.60;55.30
37052;DHT22;22964;52.272;13.356;2023-03-29T03:03:10;6.60;55.40
37052;DHT22;22964;52.272;13.356;2023-03-29T03:05:36;6.60;55.50
37052;DHT22;22964;52.272;13.356;2023-03-29T03:08:04;6.60;55.50
37052;DHT22;22964;52.272;13.356;2023-03-29T03:10:32;6.50;55.50
37052;DHT22;22964;52.272;13.356;2023-03-29T03:12:59;6.50;55.50
37052;DHT22;22964;52.272;13.356;2023-03-29T03:15:27;6.50;55.50
37052;DHT22;22964;52.272;13.356;2023-03-29T03:17:53;6.50;55.50
37052;DHT22;22964;52.272;13.356;2023-03-29T03:20:19;6.50;56.20
37052;DHT22;22964;52.272;13.356;2023-03-29T03:22:49;6.50;55.70
37052;DHT22;22964;52.272;13.356;2023-03-29T03:25:16;6.40;55.60
37052;DHT22;22964;52.272;13.356;2023-03-29T03:27:44;6.40;55.80
37052;DHT22;22964;52.272;13.356;2023-03-29T03:30:10;6.40;55.90
37052;DHT22;22964;52.272;13.356;2023-03-29T03:33:02;6.30;55.90
37052;DHT22;22964;52.272;13.356;2023-03-29T03:35:53;6.30;56.00
37052;DHT22;22964;52.272;13.356;2023-03-29T03:38:22;6.30;55.90
37052;DHT22;22964;52.272;13.356;2023-03-29T03:40:55;6.30;56.00
37052;DHT22;22964;52.272;13.356;2023-03-29T03:43:22;6.30;55.90
37052;DHT22;22964;52.272;13.356;2023-03-29T03:45:49;6.30;55.90
37052;DHT22;22964;52.272;13.356;2023-03-29T03:48:18;6.30;55.90
37052;DHT22;22964;52.272;13.356;2023-03-29T03:50:55;6.20;55.80
37052;DHT22;22964;52.272;13.356;2023-03-29T03:53:24;6.20;56.10
37052;DHT22;22964;52.272;13.356;2023-03-29T03:56:08;6.20;56.10
37052;DHT22;22964;52.272;13.356;2023-03-29T03:58:43;6.30;56.00
37052;DHT22;22964;52.272;13.356;2023-03-29T04:01:09;6.20;56.10
37052;DHT22;22964;52.272;13.356;2023-03-29T04:03:43;6.20;55.90
37052;DHT22;22964;52.272;13.356;2023-03-29T04:06:12;6.20;56.10
37052;DHT22;22964;52.272;13.356;2023-03-29T04:09:04;6.20;56.20
37052;DHT22;22964;52.272;13.356;2023-03-29T04:11:37;6.20;56.20
37052;DHT22;22964;52.272;13.356;2023-03-29T04:14:04;6.20;56.30
37052;DHT22;22964;52.272;13.356;2023-03-29T04:16:59;6.20;56.30
37052;DHT22;22964;52.272;13.356;2023-03-29T04:19:44;6.20;56.10
37052;DHT22;22964;52.272;13.356;2023-03-29T04:22:10;6.10;56.20
37052;DHT22;22964;52.272;13.356;2023-03-29T04:24:36;6.10;56.40
37052;DHT22;22964;52.272;13.356;2023-03-29T04:27:21;6.10;56.30
37052;DHT22;22964;52.272;13.356;2023-03-29T04:29:47;6.10;56.30
37052;DHT22;22964;52.272;13.356;2023-03-29T04:32:23;6.10;57.00
37052;DHT22;22964;52.272;13.356;2023-03-29T04:34:57;6.10;56.40
37052;DHT22;22964;52.272;13.356;2023-03-29T04:37:24;6.10;56.40
37052;DHT22;22964;52.272;13.356;2023-03-29T04:39:51;6.10;56.40
37052;DHT22;22964;52.272;13.356;2023-03-29T04:42:19;6.10;56.40
37052;DHT22;22964;52.272;13.356;2023-03-29T04:44:45;6.10;56.40
37052;DHT22;22964;52.272;13.356;2023-03-29T04:47:16;6.00;56.40
37052;DHT22;22964;52.272;13.356;2023-03-29T04:49:52;6.10;56.60
37052;DHT22;22964;52.272;13.356;2023-03-29T04:52:30;6.00;56.40
37052;DHT22;22964;52.272;13.356;2023-03-29T04:54:59;6.10;56.50
37052;DHT22;22964;52.272;13.356;2023-03-29T04:57:44;6.10;56.60
37052;DHT22;22964;52.272;13.356;2023-03-29T05:00:26;6.10;56.50
37052;DHT22;22964;52.272;13.356;2023-03-29T05:02:53;6.00;56.70
37052;DHT22;22964;52.272;13.356;2023-03-29T05:05:19;6.00;56.60
37052;DHT22;22964;52.272;13.356;2023-03-29T05:07:47;6.00;56.80
37052;DHT22;22964;52.272;13.356;2023-03-29T05:10:17;6.00;57.00
37052;DHT22;22964;52.272;13.356;2023-03-29T05:12:42;6.00;57.00
37052;DHT22;22964;52.272;13.356;2023-03-29T05:15:09;6.00;57.00
37052;DHT22;22964;52.272;13.356;2023-03-29T05:17:35;6.10;57.00
37052;DHT22;22964;52.272;13.356;2023-03-29T05:20:07;6.10;57.00
37052;DHT22;22964;52.272;13.356;2023-03-29T05:22:38;6.10;57.10
37052;DHT22;22964;52.272;13.356;2023-03-29T05:25:08;6.10;57.10
37052;DHT22;22964;52.272;13.356;2023-03-29T05:27:37;6.10;57.30
37052;DHT22;22964;52.272;13.356;2023-03-29T05:30:07;6.10;57.30
37052;DHT22;22964;52.272;13.356;2023-03-29T05:32:42;6.20;57.30
37052;DHT22;22964;52.272;13.356;2023-03-29T05:35:11;6.20;57.30
37052;DHT22;22964;52.272;13.356;2023-03-29T05:37:37;6.20;57.20
37052;DHT22;22964;52.272;13.356;2023-03-29T05:40:04;6.30;57.30
37052;DHT22;22964;52.272;13.356;2023-03-29T05:42:40;6.30;57.30
37052;DHT22;22964;52.272;13.356;2023-03-29T05:45:08;6.30;57.20
37052;DHT22;22964;52.272;13.356;2023-03-29T05:47:35;6.40;57.20
37052;DHT22;22964;52.272;13.356;2023-03-29T05:50:01;6.40;57.20
37052;DHT22;22964;52.272;13.356;2023-03-29T05:52:27;6.50;57.30
37052;DHT22;22964;52.272;13.356;2023-03-29T05:54:53;6.50;57.20
37052;DHT22;22964;52.272;13.356;2023-03-29T05:57:19;6.60;57.20
37052;DHT22;22964;52.272;13.356;2023-03-29T05:59:45;6.60;57.30
37052;DHT22;22964;52.272;13.356;2023-03-29T06:02:12;6.60;57.10
37052;DHT22;22964;52.272;13.356;2023-03-29T06:04:44;6.70;57.00
37052;DHT22;22964;52.272;13.356;2023-03-29T06:07:23;6.70;57.00
37052;DHT22;22964;52.272;13.356;2023-03-29T06:10:27;6.80;57.00
37052;DHT22;22964;52.272;13.356;2023-03-29T06:13:06;6.90;57.10
37052;DHT22;22964;52.272;13.356;2023-03-29T06:15:33;6.90;56.90
37052;DHT22;22964;52.272;13.356;2023-03-29T06:18:03;7.00;57.00
37052;DHT22;22964;52.272;13.356;2023-03-29T06:20:31;7.00;56.90
37052;DHT22;22964;52.272;13.356;2023-03-29T06:23:03;7.10;57.00
37052;DHT22;22964;52.272;13.356;2023-03-29T06:25:28;7.10;56.80
37052;DHT22;22964;52.272;13.356;2023-03-29T06:27:54;7.20;57.00
37052;DHT22;22964;52.272;13.356;2023-03-29T06:30:20;7.20;56.80
37052;DHT22;22964;52.272;13.356;2023-03-29T06:32:49;7.30;57.00
37052;DHT22;22964;52.272;13.356;2023-03-29T06:35:35;7.30;56.70
37052;DHT22;22964;52.272;13.356;2023-03-29T06:38:05;7.40;56.70
37052;DHT22;22964;52.272;13.356;2023-03-29T06:40:51;7.50;56.70
37052;DHT22;22964;52.272;13.356;2023-03-29T06:43:24;7.50;56.60
37052;DHT22;22964;52.272;13.356;2023-03-29T06:46:04;7.60;56.40
37052;DHT22;22964;52.272;13.356;2023-03-29T06:48:48;7.60;56.30
37052;DHT22;22964;52.272;13.356;2023-03-29T06:51:14;7.70;56.20
37052;DHT22;22964;52.272;13.356;2023-03-29T06:53:40;7.80;56.30
37052;DHT22;22964;52.272;13.356;2023-03-29T06:56:06;7.80;56.30
37052;DHT22;22964;52.272;13.356;2023-03-29T06:58:39;7.90;56.30
37052;DHT22;22964;52.272;13.356;2023-03-29T07:01:24;7.90;56.30
37052;DHT22;22964;52.272;13.356;2023-03-29T07:04:06;8.10;56.30
37052;DHT22;22964;52.272;13.356;2023-03-29T07:06:45;8.10;56.10
37052;DHT22;22964;52.272;13.356;2023-03-29T07:09:14;8.20;56.80
37052;DHT22;22964;52.272;13.356;2023-03-29T07:12:07;8.20;56.10
37052;DHT22;22964;52.272;13.356;2023-03-29T07:14:33;8.30;56.10
37052;DHT22;22964;52.272;13.356;2023-03-29T07:17:00;8.40;56.00
37052;DHT22;22964;52.272;13.356;2023-03-29T07:19:32;8.40;56.00
37052;DHT22;22964;52.272;13.356;2023-03-29T07:22:16;8.50;56.00
37052;DHT22;22964;52.272;13.356;2023-03-29T07:24:52;8.60;56.00
37052;DHT22;22964;52.272;13.356;2023-03-29T07:27:18;8.60;55.90
37052;DHT22;22964;52.272;13.356;2023-03-29T07:29:47;8.70;55.90
37052;DHT22;22964;52.272;13.356;2023-03-29T07:32:15;8.80;55.90
37052;DHT22;22964;52.272;13.356;2023-03-29T07:34:41;8.90;56.00
37052;DHT22;22964;52.272;13.356;2023-03-29T07:37:11;8.90;56.00
37052;DHT22;22964;52.272;13.356;2023-03-29T07:39:41;9.00;55.90
37052;DHT22;22964;52.272;13.356;2023-03-29T07:42:26;9.10;56.00
37052;DHT22;22964;52.272;13.356;2023-03-29T07:44:54;9.20;55.90
37052;DHT22;22964;52.272;13.356;2023-03-29T07:47:22;9.30;56.00
37052;DHT22;22964;52.272;13.356;2023-03-29T07:49:49;9.40;56.00
37052;DHT22;22964;52.272;13.356;2023-03-29T07:52:15;9.50;56.00
37052;DHT22;22964;52.272;13.356;2023-03-29T07:54:41;9.60;55.80
37052;DHT22;22964;52.272;13.356;2023-03-29T07:57:18;9.70;55.80
37052;DHT22;22964;52.272;13.356;2023-03-29T07:59:50;9.80;55.70
37052;DHT22;22964;52.272;13.356;2023-03-29T08:02:21;9.90;55.80
37052;DHT22;22964;52.272;13.356;2023-03-29T08:04:50;10.00;55.70
37052;DHT22;22964;52.272;13.356;2023-03-29T08:07:29;10.10;55.50
37052;DHT22;22964;52.272;13.356;2023-03-29T08:10:18;10.30;55.30
37052;DHT22;22964;52.272;13.356;2023-03-29T08:13:11;10.40;55.30
37052;DHT22;22964;52.272;13.356;2023-03-29T08:15:44;10.50;55.30
37052;DHT22;22964;52.272;13.356;2023-03-29T08:18:26;10.60;55.20
37052;DHT22;22964;52.272;13.356;2023-03-29T08:20:51;10.70;55.10
37052;DHT22;22964;52.272;13.356;2023-03-29T08:23:17;10.80;55.00
37052;DHT22;22964;52.272;13.356;2023-03-29T08:26:01;10.90;54.80
37052;DHT22;22964;52.272;13.356;2023-03-29T08:28:27;11.00;54.50
37052;DHT22;22964;52.272;13.356;2023-03-29T08:30:53;11.00;54.60
37052;DHT22;22964;52.272;13.356;2023-03-29T08:33:19;11.10;54.60
37052;DHT22;22964;52.272;13.356;2023-03-29T08:35:51;11.20;54.50
37052;DHT22;22964;52.272;13.356;2023-03-29T08:38:20;11.20;54.40
37052;DHT22;22964;52.272;13.356;2023-03-29T08:40:48;11.30;54.60
37052;DHT22;22964;52.272;13.356;2023-03-29T08:44:00;11.40;54.70
37052;DHT22;22964;52.272;13.356;2023-03-29T08:47:11;11.50;54.60
37052;DHT22;22964;52.272;13.356;2023-03-29T08:49:47;11.70;54.80
37052;DHT22;22964;52.272;13.356;2023-03-29T08:52:36;11.90;54.80
37052;DHT22;22964;52.272;13.356;2023-03-29T08:55:51;12.10;54.30
37052;DHT22;22964;52.272;13.356;2023-03-29T08:58:37;12.30;54.80
37052;DHT22;22964;52.272;13.356;2023-03-29T09:01:04;12.50;54.00
37052;DHT22;22964;52.272;13.356;2023-03-29T09:06:44;12.90;53.70
37052;DHT22;22964;52.272;13.356;2023-03-29T09:09:21;13.10;53.50
37052;DHT22;22964;52.272;13.356;2023-03-29T09:12:11;13.20;53.40
37052;DHT22;22964;52.272;13.356;2023-03-29T09:14:59;13.40;53.10
37052;DHT22;22964;52.272;13.356;2023-03-29T09:20:42;13.70;52.40
37052;DHT22;22964;52.272;13.356;2023-03-29T09:31:55;14.20;51.40
37052;DHT22;22964;52.272;13.356;2023-03-29T09:34:29;14.30;51.50
37052;DHT22;22964;52.272;13.356;2023-03-29T09:37:07;14.30;51.30
37052;DHT22;22964;52.272;13.356;2023-03-29T09:39:39;14.40;51.00
37052;DHT22;22964;52.272;13.356;2023-03-29T09:42:10;14.50;50.90
37052;DHT22;22964;52.272;13.356;2023-03-29T09:44:54;14.50;50.40
37052;DHT22;22964;52.272;13.356;2023-03-29T09:50:38;14.60;50.30
37052;DHT22;22964;52.272;13.356;2023-03-29T09:53:08;14.60;50.40
37052;DHT22;22964;52.272;13.356;2023-03-29T09:55:37;14.70;50.60
37052;DHT22;22964;52.272;13.356;2023-03-29T09:58:24;14.70;50.60
37052;DHT22;22964;52.272;13.356;2023-03-29T10:00:56;14.80;50.80
37052;DHT22;22964;52.272;13.356;2023-03-29T10:03:26;14.90;50.80
37052;DHT22;22964;52.272;13.356;2023-03-29T10:06:02;14.90;50.40
37052;DHT22;22964;52.272;13.356;2023-03-29T10:11:07;15.00;50.20
37052;DHT22;22964;52.272;13.356;2023-03-29T10:13:35;15.00;50.60
37052;DHT22;22964;52.272;13.356;2023-03-29T10:16:20;15.10;50.40
37052;DHT22;22964;52.272;13.356;2023-03-29T10:18:46;15.20;50.30
37052;DHT22;22964;52.272;13.356;2023-03-29T10:21:13;15.30;50.50
37052;DHT22;22964;52.272;13.356;2023-03-29T10:23:45;15.30;50.50
37052;DHT22;22964;52.272;13.356;2023-03-29T10:26:31;15.50;50.40
37052;DHT22;22964;52.272;13.356;2023-03-29T10:28:58;15.60;49.70
37052;DHT22;22964;52.272;13.356;2023-03-29T10:31:28;15.70;49.40
37052;DHT22;22964;52.272;13.356;2023-03-29T10:34:01;15.70;48.80
37052;DHT22;22964;52.272;13.356;2023-03-29T10:36:28;15.70;48.80
37052;DHT22;22964;52.272;13.356;2023-03-29T10:38:56;15.80;49.30
37052;DHT22;22964;52.272;13.356;2023-03-29T10:41:24;15.70;48.60
37052;DHT22;22964;52.272;13.356;2023-03-29T10:43:52;15.70;49.20
37052;DHT22;22964;52.272;13.356;2023-03-29T10:46:29;15.70;49.30
37052;DHT22;22964;52.272;13.356;2023-03-29T10:49:04;15.80;50.20
37052;DHT22;22964;52.272;13.356;2023-03-29T10:51:35;15.90;49.40
37052;DHT22;22964;52.272;13.356;2023-03-29T10:54:02;15.90;49.30
37052;DHT22;22964;52.272;13.356;2023-03-29T10:56:31;16.00;49.50
37052;DHT22;22964;52.272;13.356;2023-03-29T10:59:16;16.00;49.10
37052;DHT22;22964;52.272;13.356;2023-03-29T11:21:41;16.00;48.20
37052;DHT22;22964;52.272;13.356;2023-03-29T11:40:54;16.00;48.40
37052;DHT22;22964;52.272;13.356;2023-03-29T11:51:35;16.20;48.50
37052;DHT22;22964;52.272;13.356;2023-03-29T11:54:06;16.20;48.60
37052;DHT22;22964;52.272;13.356;2023-03-29T11:56:49;16.30;48.70
37052;DHT22;22964;52.272;13.356;2023-03-29T11:59:34;16.40;48.60
37052;DHT22;22964;52.272;13.356;2023-03-29T12:02:13;16.50;48.60
37052;DHT22;22964;52.272;13.356;2023-03-29T12:04:47;16.60;48.50
37052;DHT22;22964;52.272;13.356;2023-03-29T12:07:40;16.80;48.50
37052;DHT22;22964;52.272;13.356;2023-03-29T12:10:13;16.90;48.10
37052;DHT22;22964;52.272;13.356;2023-03-29T12:13:05;17.00;47.90
37052;DHT22;22964;52.272;13.356;2023-03-29T12:15:35;17.10;47.50
37052;DHT22;22964;52.272;13.356;2023-03-29T12:20:52;17.10;47.70
37052;DHT22;22964;52.272;13.356;2023-03-29T12:23:21;17.10;47.30
37052;DHT22;22964;52.272;13.356;2023-03-29T12:31:26;17.10;46.90
37052;DHT22;22964;52.272;13.356;2023-03-29T12:39:44;16.90;46.90
37052;DHT22;22964;52.272;13.356;2023-03-29T12:42:28;16.90;47.00
37052;DHT22;22964;52.272;13.356;2023-03-29T12:45:29;16.80;47.10
37052;DHT22;22964;52.272;13.356;2023-03-29T12:47:56;16.70;47.10
37052;DHT22;22964;52.272;13.356;2023-03-29T12:50:35;16.70;47.20
37052;DHT22;22964;52.272;13.356;2023-03-29T13:01:03;16.50;46.60
37052;DHT22;22964;52.272;13.356;2023-03-29T13:06:07;16.50;46.70
37052;DHT22;22964;52.272;13.356;2023-03-29T13:08:42;16.50;47.20
37052;DHT22;22964;52.272;13.356;2023-03-29T13:11:32;16.50;47.10
37052;DHT22;22964;52.272;13.356;2023-03-29T13:14:00;16.50;47.20
37052;DHT22;22964;52.272;13.356;2023-03-29T13:16:30;16.60;47.30
37052;DHT22;22964;52.272;13.356;2023-03-29T13:22:11;16.50;47.00
37052;DHT22;22964;52.272;13.356;2023-03-29T13:25:03;16.50;46.90
37052;DHT22;22964;52.272;13.356;2023-03-29T13:27:47;16.50;46.90
37052;DHT22;22964;52.272;13.356;2023-03-29T13:30:30;16.50;46.70
37052;DHT22;22964;52.272;13.356;2023-03-29T13:33:02;16.50;46.90
37052;DHT22;22964;52.272;13.356;2023-03-29T13:38:19;16.40;47.20
37052;DHT22;22964;52.272;13.356;2023-03-29T13:40:55;16.40;47.20
37052;DHT22;22964;52.272;13.356;2023-03-29T13:49:19;16.30;47.10
37052;DHT22;22964;52.272;13.356;2023-03-29T13:52:11;16.30;47.20
37052;DHT22;22964;52.272;13.356;2023-03-29T13:54:54;16.30;47.50
37052;DHT22;22964;52.272;13.356;2023-03-29T14:02:49;16.20;47.60
37052;DHT22;22964;52.272;13.356;2023-03-29T14:05:19;16.20;47.60
37052;DHT22;22964;52.272;13.356;2023-03-29T14:07:50;16.20;47.70
37052;DHT22;22964;52.272;13.356;2023-03-29T14:10:30;16.10;47.50
37052;DHT22;22964;52.272;13.356;2023-03-29T14:12:56;16.10;47.50
37052;DHT22;22964;52.272;13.356;2023-03-29T14:15:26;16.10;47.80
37052;DHT22;22964;52.272;13.356;2023-03-29T14:17:59;16.10;48.00
37052;DHT22;22964;52.272;13.356;2023-03-29T14:20:25;16.10;48.00
37052;DHT22;22964;52.272;13.356;2023-03-29T14:22:52;16.00;48.20
37052;DHT22;22964;52.272;13.356;2023-03-29T14:25:20;16.00;48.20
37052;DHT22;22964;52.272;13.356;2023-03-29T14:27:47;16.00;48.20
37052;DHT22;22964;52.272;13.356;2023-03-29T14:30:27;16.00;48.30
37052;DHT22;22964;52.272;13.356;2023-03-29T14:32:54;16.00;48.30
37052;DHT22;22964;52.272;13.356;2023-03-29T14:35:28;16.00;48.50
37052;DHT22;22964;52.272;13.356;2023-03-29T14:37:55;16.00;48.50
37052;DHT22;22964;52.272;13.356;2023-03-29T14:40:21;16.00;48.60
37052;DHT22;22964;52.272;13.356;2023-03-29T14:42:48;16.10;48.70
37052;DHT22;22964;52.272;13.356;2023-03-29T14:45:16;16.10;48.70
37052;DHT22;22964;52.272;13.356;2023-03-29T14:47:43;16.10;48.80
37052;DHT22;22964;52.272;13.356;2023-03-29T14:50:26;16.10;48.80
37052;DHT22;22964;52.272;13.356;2023-03-29T14:52:53;16.20;48.70
37052;DHT22;22964;52.272;13.356;2023-03-29T14:55:20;16.20;48.80
37052;DHT22;22964;52.272;13.356;2023-03-29T14:57:49;16.20;48.80
37052;DHT22;22964;52.272;13.356;2023-03-29T15:02:57;16.20;48.70
37052;DHT22;22964;52.272;13.356;2023-03-29T15:05:24;16.30;48.70
37052;DHT22;22964;52.272;13.356;2023-03-29T15:07:52;16.30;48.80
37052;DHT22;22964;52.272;13.356;2023-03-29T15:10:20;16.30;48.70
37052;DHT22;22964;52.272;13.356;2023-03-29T15:12:47;16.30;48.60
37052;DHT22;22964;52.272;13.356;2023-03-29T15:15:13;16.30;48.70
37052;DHT22;22964;52.272;13.356;2023-03-29T15:17:41;16.30;48.70
37052;DHT22;22964;52.272;13.356;2023-03-29T15:20:23;16.30;48.70
37052;DHT22;22964;52.272;13.356;2023-03-29T15:25:36;16.30;48.70
37052;DHT22;22964;52.272;13.356;2023-03-29T15:28:02;16.30;48.60
37052;DHT22;22964;52.272;13.356;2023-03-29T15:30:38;16.30;48.70
37052;DHT22;22964;52.272;13.356;2023-03-29T15:33:14;16.30;48.80
37052;DHT22;22964;52.272;13.356;2023-03-29T15:35:42;16.30;49.00
37052;DHT22;22964;52.272;13.356;2023-03-29T15:38:11;16.30;49.00
37052;DHT22;22964;52.272;13.356;2023-03-29T15:40:37;16.30;49.00
37052;DHT22;22964;52.272;13.356;2023-03-29T15:43:03;16.30;49.10
37052;DHT22;22964;52.272;13.356;2023-03-29T15:45:29;16.30;49.30
37052;DHT22;22964;52.272;13.356;2023-03-29T15:47:55;16.30;49.40
37052;DHT22;22964;52.272;13.356;2023-03-29T15:50:21;16.30;49.30
37052;DHT22;22964;52.272;13.356;2023-03-29T15:52:47;16.40;49.30
37052;DHT22;22964;52.272;13.356;2023-03-29T15:55:14;16.40;49.30
37052;DHT22;22964;52.272;13.356;2023-03-29T15:57:41;16.40;49.30
37052;DHT22;22964;52.272;13.356;2023-03-29T16:00:12;16.40;49.30
37052;DHT22;22964;52.272;13.356;2023-03-29T16:02:38;16.40;49.40
37052;DHT22;22964;52.272;13.356;2023-03-29T16:05:04;16.40;49.30
37052;DHT22;22964;52.272;13.356;2023-03-29T16:07:30;16.50;49.30
37052;DHT22;22964;52.272;13.356;2023-03-29T16:09:56;16.40;49.20
37052;DHT22;22964;52.272;13.356;2023-03-29T16:12:22;16.50;49.30
37052;DHT22;22964;52.272;13.356;2023-03-29T16:14:47;16.40;50.00
37052;DHT22;22964;52.272;13.356;2023-03-29T16:17:13;16.40;49.30
37052;DHT22;22964;52.272;13.356;2023-03-29T16:19:40;16.50;49.50
37052;DHT22;22964;52.272;13.356;2023-03-29T16:22:06;16.50;49.50
37052;DHT22;22964;52.272;13.356;2023-03-29T16:24:32;16.50;49.40
37052;DHT22;22964;52.272;13.356;2023-03-29T16:27:00;16.40;49.40
37052;DHT22;22964;52.272;13.356;2023-03-29T16:29:27;16.40;49.50
37052;DHT22;22964;52.272;13.356;2023-03-29T16:31:53;16.40;49.50
37052;DHT22;22964;52.272;13.356;2023-03-29T16:34:20;16.40;49.60
37052;DHT22;22964;52.272;13.356;2023-03-29T16:36:46;16.40;49.60
37052;DHT22;22964;52.272;13.356;2023-03-29T16:39:12;16.40;49.70
37052;DHT22;22964;52.272;13.356;2023-03-29T16:41:39;16.30;49.70
37052;DHT22;22964;52.272;13.356;2023-03-29T16:44:05;16.30;49.80
37052;DHT22;22964;52.272;13.356;2023-03-29T16:46:32;16.30;49.90
37052;DHT22;22964;52.272;13.356;2023-03-29T16:48:58;16.30;49.90
37052;DHT22;22964;52.272;13.356;2023-03-29T16:51:24;16.30;50.00
37052;DHT22;22964;52.272;13.356;2023-03-29T16:53:50;16.20;50.00
37052;DHT22;22964;52.272;13.356;2023-03-29T16:56:17;16.30;50.10
37052;DHT22;22964;52.272;13.356;2023-03-29T16:58:43;16.20;50.10
37052;DHT22;22964;52.272;13.356;2023-03-29T17:01:14;16.20;50.20
37052;DHT22;22964;52.272;13.356;2023-03-29T17:03:41;16.20;50.30
37052;DHT22;22964;52.272;13.356;2023-03-29T17:06:08;16.20;50.30
37052;DHT22;22964;52.272;13.356;2023-03-29T17:08:34;16.20;50.30
37052;DHT22;22964;52.272;13.356;2023-03-29T17:11:00;16.20;50.40
37052;DHT22;22964;52.272;13.356;2023-03-29T17:13:27;16.10;50.40
37052;DHT22;22964;52.272;13.356;2023-03-29T17:15:54;16.10;50.40
37052;DHT22;22964;52.272;13.356;2023-03-29T17:18:22;16.10;50.50
37052;DHT22;22964;52.272;13.356;2023-03-29T17:20:55;16.10;50.60
37052;DHT22;22964;52.272;13.356;2023-03-29T17:23:21;16.10;50.80
37052;DHT22;22964;52.272;13.356;2023-03-29T17:25:47;16.10;50.70
37052;DHT22;22964;52.272;13.356;2023-03-29T17:28:13;16.10;50.80
37052;DHT22;22964;52.272;13.356;2023-03-29T17:30:39;16.10;50.80
37052;DHT22;22964;52.272;13.356;2023-03-29T17:33:04;16.10;50.90
37052;DHT22;22964;52.272;13.356;2023-03-29T17:35:31;16.10;50.90
37052;DHT22;22964;52.272;13.356;2023-03-29T17:37:56;16.10;50.90
37052;DHT22;22964;52.272;13.356;2023-03-29T17:40:23;16.00;50.90
37052;DHT22;22964;52.272;13.356;2023-03-29T17:42:49;16.00;51.00
37052;DHT22;22964;52.272;13.356;2023-03-29T17:45:17;16.00;51.00
37052;DHT22;22964;52.272;13.356;2023-03-29T17:47:44;16.00;51.30
37052;DHT22;22964;52.272;13.356;2023-03-29T17:50:11;16.00;51.20
37052;DHT22;22964;52.272;13.356;2023-03-29T17:52:37;16.00;51.10
37052;DHT22;22964;52.272;13.356;2023-03-29T17:55:10;16.00;51.10
37052;DHT22;22964;52.272;13.356;2023-03-29T17:57:41;15.90;51.20
37052;DHT22;22964;52.272;13.356;2023-03-29T18:00:12;15.90;51.10